createdAt,value
2018-03-23T00:01:21.299Z,15.00
2018-03-23T00:02:53.113Z,15.00
2018-03-23T00:04:24.929Z,15.10
2018-03-23T00:05:56.744Z,13.60
2018-03-23T00:07:28.560Z,15.30
2018-03-23T00:09:00.424Z,14.50
2018-03-23T00:10:32.189Z,12.20
2018-03-23T00:12:04.004Z,14.40
2018-03-23T00:13:35.919Z,13.20
2018-03-23T00:15:07.634Z,11.70
2018-03-23T00:16:39.449Z,12.20
2018-03-23T00:18:11.264Z,10.50
2018-03-23T00:19:43.184Z,9.60
2018-03-23T00:21:14.893Z,7.70
2018-03-23T00:22:46.708Z,6.90
2018-03-23T00:24:18.523Z,8.10
2018-03-23T00:25:50.338Z,8.90
2018-03-23T00:27:22.153Z,9.00
2018-03-23T00:28:53.968Z,8.00
2018-03-23T00:30:25.783Z,9.40
2018-03-23T00:31:57.698Z,10.30
2018-03-23T00:33:29.415Z,7.20
2018-03-23T00:35:01.228Z,6.40
2018-03-23T00:36:33.044Z,6.30
2018-03-23T00:38:04.862Z,6.70
2018-03-23T00:39:36.678Z,7.00
2018-03-23T00:41:08.489Z,7.40
2018-03-23T00:42:40.304Z,6.00
2018-03-23T00:44:12.120Z,6.20
2018-03-23T00:45:43.935Z,6.30
2018-03-23T00:47:15.752Z,4.30
2018-03-23T00:48:47.565Z,4.80
2018-03-23T00:50:19.632Z,5.80
2018-03-23T00:51:51.196Z,4.30
2018-03-23T00:53:23.012Z,4.80
2018-03-23T00:54:54.827Z,5.10
2018-03-23T00:56:26.743Z,4.90
2018-03-23T00:57:58.458Z,4.80
2018-03-23T00:59:30.320Z,4.30
2018-03-23T01:01:02.089Z,4.70
2018-03-23T01:02:34.107Z,4.00
2018-03-23T01:04:05.721Z,5.70
2018-03-23T01:05:37.536Z,7.50
2018-03-23T01:07:09.354Z,3.80
2018-03-23T01:08:41.265Z,4.60
2018-03-23T01:10:12.982Z,5.20
2018-03-23T01:11:44.797Z,4.00
2018-03-23T01:13:16.612Z,3.70
2018-03-23T01:14:48.427Z,4.70
2018-03-23T01:16:20.244Z,3.50
2018-03-23T01:17:52.059Z,3.50
2018-03-23T01:19:23.873Z,3.90
2018-03-23T01:20:55.789Z,3.90
2018-03-23T01:22:27.511Z,2.80
2018-03-23T01:23:59.320Z,3.00
2018-03-23T01:25:31.136Z,3.10
2018-03-23T01:27:03.057Z,3.80
2018-03-23T01:28:34.772Z,2.90
2018-03-23T01:30:06.580Z,5.00
2018-03-23T01:31:38.397Z,2.70
2018-03-23T01:33:10.211Z,2.60
2018-03-23T01:34:42.026Z,2.60
2018-03-23T01:36:13.841Z,3.70
2018-03-23T01:37:45.656Z,3.30
2018-03-23T01:39:17.472Z,2.50
2018-03-23T01:40:49.286Z,2.70
2018-03-23T01:42:21.102Z,3.40
2018-03-23T01:43:52.918Z,3.10
2018-03-23T01:45:24.832Z,2.30
2018-03-23T01:46:56.547Z,3.10
2018-03-23T01:48:28.362Z,2.30
2018-03-23T01:50:00.179Z,2.50
2018-03-23T01:51:32.093Z,2.10
2018-03-23T01:53:03.807Z,2.10
2018-03-23T01:54:35.622Z,3.20
2018-03-23T01:56:07.437Z,2.30
2018-03-23T01:57:39.254Z,2.20
2018-03-23T01:59:11.067Z,3.00
2018-03-23T02:00:42.881Z,2.50
2018-03-23T02:02:14.697Z,2.20
2018-03-23T02:03:46.612Z,2.00
2018-03-23T02:05:18.328Z,1.80
2018-03-23T02:06:50.142Z,2.20
2018-03-23T02:08:21.957Z,2.10
2018-03-23T02:09:53.771Z,3.00
2018-03-23T02:11:25.587Z,2.50
2018-03-23T02:12:57.402Z,2.70
2018-03-23T02:14:29.217Z,3.10
2018-03-23T02:16:01.031Z,2.30
2018-03-23T02:17:32.847Z,3.10
2018-03-23T02:19:04.661Z,2.90
2018-03-23T02:20:36.480Z,2.70
2018-03-23T02:22:08.543Z,3.30
2018-03-23T02:23:40.110Z,3.80
2018-03-23T02:25:11.922Z,4.00
2018-03-23T02:26:43.736Z,2.70
2018-03-23T02:28:15.551Z,2.50
2018-03-23T02:29:47.366Z,2.90
2018-03-23T02:31:19.181Z,2.60
2018-03-23T02:32:50.998Z,2.30
2018-03-23T02:34:22.811Z,2.80
2018-03-23T02:35:54.626Z,2.50
2018-03-23T02:37:26.442Z,1.90
2018-03-23T02:40:30.171Z,3.10
2018-03-23T02:42:01.888Z,1.90
2018-03-23T02:43:33.702Z,2.00
2018-03-23T02:45:05.516Z,1.80
2018-03-23T02:46:37.335Z,1.90
2018-03-23T02:48:09.147Z,1.70
2018-03-23T02:49:40.960Z,3.00
2018-03-23T02:51:12.776Z,2.00
2018-03-23T02:52:44.693Z,2.00
2018-03-23T02:54:16.412Z,1.70
2018-03-23T02:55:48.221Z,1.90
2018-03-23T02:57:20.059Z,3.00
2018-03-23T02:58:51.952Z,3.20
2018-03-23T03:00:23.664Z,2.90
2018-03-23T03:01:55.480Z,4.00
2018-03-23T03:03:27.295Z,4.10
2018-03-23T03:06:31.177Z,4.00
2018-03-23T03:08:02.740Z,2.80
2018-03-23T03:09:34.558Z,3.50
2018-03-23T03:11:06.369Z,3.90
2018-03-23T03:12:38.184Z,3.90
2018-03-23T03:14:10.002Z,3.70
2018-03-23T03:15:41.814Z,3.10
2018-03-23T03:17:13.630Z,2.40
2018-03-23T03:18:45.545Z,2.70
2018-03-23T03:20:17.260Z,2.50
2018-03-23T03:21:49.076Z,2.20
2018-03-23T03:23:20.890Z,1.90
2018-03-23T03:24:52.856Z,2.90
2018-03-23T03:26:24.521Z,2.90
2018-03-23T03:27:56.335Z,2.50
2018-03-23T03:29:28.151Z,2.80
2018-03-23T03:30:59.967Z,1.90
2018-03-23T03:32:31.781Z,3.60
2018-03-23T03:34:03.597Z,2.50
2018-03-23T03:35:35.412Z,3.00
2018-03-23T03:37:07.329Z,2.80
2018-03-23T03:38:39.042Z,2.30
2018-03-23T03:40:10.858Z,2.90
2018-03-23T03:41:42.674Z,2.60
2018-03-23T03:43:14.638Z,2.70
2018-03-23T03:44:46.303Z,1.70
2018-03-23T03:46:18.118Z,1.50
2018-03-23T03:47:49.933Z,1.60
2018-03-23T03:49:21.750Z,1.70
2018-03-23T03:50:53.567Z,1.90
2018-03-23T03:52:25.378Z,2.50
2018-03-23T03:53:57.193Z,1.50
2018-03-23T03:55:29.263Z,1.20
2018-03-23T03:57:01.026Z,1.10
2018-03-23T03:58:32.639Z,1.90
2018-03-23T04:00:04.454Z,1.90
2018-03-23T04:01:36.270Z,1.60
2018-03-23T04:03:08.088Z,1.60
2018-03-23T04:04:39.899Z,1.00
2018-03-23T04:06:11.714Z,1.60
2018-03-23T04:07:43.780Z,1.80
2018-03-23T04:09:15.344Z,2.00
2018-03-23T04:10:47.159Z,1.50
2018-03-23T04:12:18.974Z,1.20
2018-03-23T04:13:50.889Z,1.60
2018-03-23T04:15:22.604Z,1.40
2018-03-23T04:16:54.419Z,1.70
2018-03-23T04:18:26.234Z,1.50
2018-03-23T04:19:58.049Z,1.60
2018-03-23T04:21:29.864Z,1.40
2018-03-23T04:23:01.679Z,1.70
2018-03-23T04:24:33.500Z,1.70
2018-03-23T04:26:05.410Z,1.90
2018-03-23T04:27:37.125Z,1.60
2018-03-23T04:29:08.939Z,2.20
2018-03-23T04:30:40.755Z,1.80
2018-03-23T04:32:12.820Z,2.10
2018-03-23T04:33:44.386Z,1.70
2018-03-23T04:35:16.200Z,1.90
2018-03-23T04:36:48.016Z,1.90
2018-03-23T04:38:19.831Z,1.40
2018-03-23T04:39:51.646Z,2.30
2018-03-23T04:41:23.462Z,1.80
2018-03-23T04:42:55.277Z,2.10
2018-03-23T04:44:27.243Z,3.20
2018-03-23T04:45:58.908Z,3.10
2018-03-23T04:47:30.726Z,3.90
2018-03-23T04:49:02.539Z,3.40
2018-03-23T04:50:34.455Z,2.50
2018-03-23T04:52:06.169Z,3.40
2018-03-23T04:53:37.985Z,2.00
2018-03-23T04:55:09.801Z,2.60
2018-03-23T04:56:41.716Z,5.10
2018-03-23T04:58:13.434Z,2.80
2018-03-23T05:01:17.062Z,2.30
2018-03-23T05:02:49.029Z,2.90
2018-03-23T05:04:20.701Z,2.60
2018-03-23T05:05:52.508Z,2.80
2018-03-23T05:07:24.324Z,3.10
2018-03-23T05:08:56.241Z,4.50
2018-03-23T05:10:27.955Z,5.00
2018-03-23T05:11:59.771Z,7.60
2018-03-23T05:13:31.586Z,4.30
2018-03-23T05:15:03.551Z,4.20
2018-03-23T05:16:35.218Z,4.30
2018-03-23T05:18:07.032Z,5.60
2018-03-23T05:19:38.851Z,4.10
2018-03-23T05:21:10.662Z,6.50
2018-03-23T05:22:42.477Z,4.40
2018-03-23T05:24:14.293Z,4.50
2018-03-23T05:25:46.111Z,8.20
2018-03-23T05:27:18.623Z,5.40
2018-03-23T05:28:49.738Z,4.30
2018-03-23T05:30:21.552Z,5.40
2018-03-23T05:31:53.368Z,6.00
2018-03-23T05:33:25.182Z,7.30
2018-03-23T05:34:56.998Z,5.50
2018-03-23T05:36:28.815Z,5.50
2018-03-23T05:38:00.628Z,6.10
2018-03-23T05:39:32.695Z,7.10
2018-03-23T05:41:04.258Z,6.80
2018-03-23T05:42:36.072Z,6.00
2018-03-23T05:44:07.888Z,6.00
2018-03-23T05:45:39.954Z,5.60
2018-03-23T05:47:11.517Z,5.40
2018-03-23T05:48:43.332Z,6.30
2018-03-23T05:50:15.148Z,7.60
2018-03-23T05:51:46.976Z,5.30
2018-03-23T05:53:18.778Z,9.40
2018-03-23T05:54:50.593Z,7.40
2018-03-23T05:56:22.408Z,6.40
2018-03-23T05:57:54.325Z,7.70
2018-03-23T05:59:26.039Z,8.70
2018-03-23T06:00:57.855Z,6.90
2018-03-23T06:02:29.670Z,6.90
2018-03-23T06:04:01.589Z,7.00
2018-03-23T06:05:33.300Z,5.60
2018-03-23T06:07:05.115Z,6.80
2018-03-23T06:08:36.929Z,8.10
2018-03-23T06:10:09.000Z,8.40
2018-03-23T06:11:40.562Z,9.20
2018-03-23T06:13:12.373Z,7.50
2018-03-23T06:14:44.188Z,6.80
2018-03-23T06:16:16.003Z,7.90
2018-03-23T06:17:47.817Z,5.50
2018-03-23T06:19:19.632Z,4.70
2018-03-23T06:20:51.447Z,5.20
2018-03-23T06:22:23.362Z,4.20
2018-03-23T06:23:55.077Z,4.20
2018-03-23T06:25:26.891Z,3.40
2018-03-23T06:26:58.909Z,4.50
2018-03-23T06:28:30.623Z,4.60
2018-03-23T06:30:02.336Z,3.70
2018-03-23T06:31:34.150Z,3.50
2018-03-23T06:33:05.969Z,3.20
2018-03-23T06:34:37.780Z,3.30
2018-03-23T06:36:09.596Z,5.50
2018-03-23T06:37:41.409Z,5.00
2018-03-23T06:39:13.224Z,5.40
2018-03-23T06:40:45.239Z,4.20
2018-03-23T06:42:16.858Z,4.40
2018-03-23T06:43:48.669Z,5.90
2018-03-23T06:45:20.487Z,4.90
2018-03-23T06:46:52.298Z,8.00
2018-03-23T06:48:24.117Z,6.90
2018-03-23T06:49:55.932Z,7.20
2018-03-23T06:51:27.747Z,6.10
2018-03-23T06:52:59.562Z,6.40
2018-03-23T06:54:31.385Z,8.40
2018-03-23T06:56:03.194Z,6.70
2018-03-23T06:57:35.005Z,8.80
2018-03-23T06:59:07.070Z,7.10
2018-03-23T07:00:38.635Z,7.40
2018-03-23T07:02:10.450Z,7.30
2018-03-23T07:03:42.264Z,7.40
2018-03-23T07:05:14.079Z,7.50
2018-03-23T07:06:45.895Z,12.20
2018-03-23T07:08:17.708Z,8.80
2018-03-23T07:09:49.525Z,10.70
2018-03-23T07:11:21.338Z,10.00
2018-03-23T07:12:53.154Z,8.10
2018-03-23T07:14:24.968Z,9.30
2018-03-23T07:15:56.782Z,10.70
2018-03-23T07:17:28.798Z,14.50
2018-03-23T07:19:00.413Z,11.50
2018-03-23T07:20:32.228Z,9.20
2018-03-23T07:22:04.044Z,11.80
2018-03-23T07:23:35.858Z,12.10
2018-03-23T07:25:07.675Z,12.30
2018-03-23T07:26:39.488Z,7.50
2018-03-23T07:28:11.303Z,7.50
2018-03-23T07:29:43.268Z,7.00
2018-03-23T07:31:14.933Z,7.80
2018-03-23T07:32:46.748Z,8.90
2018-03-23T07:34:18.564Z,7.90
2018-03-23T07:35:51.131Z,7.80
2018-03-23T07:37:22.193Z,9.60
2018-03-23T07:38:54.007Z,8.10
2018-03-23T07:40:25.823Z,7.60
2018-03-23T07:41:57.637Z,8.70
2018-03-23T07:43:29.452Z,7.70
2018-03-23T07:45:01.267Z,8.20
2018-03-23T07:46:33.082Z,10.00
2018-03-23T07:48:04.898Z,9.10
2018-03-23T07:49:36.712Z,10.20
2018-03-23T07:51:08.527Z,9.40
2018-03-23T07:52:40.338Z,9.10
2018-03-23T07:54:12.352Z,13.80
2018-03-23T07:55:43.966Z,11.60
2018-03-23T07:57:15.781Z,10.50
2018-03-23T07:58:47.596Z,12.10
2018-03-23T08:00:19.565Z,10.90
2018-03-23T08:01:51.226Z,11.70
2018-03-23T08:03:23.041Z,12.10
2018-03-23T08:04:54.855Z,15.80
2018-03-23T08:06:26.670Z,15.80
2018-03-23T08:07:58.485Z,10.60
2018-03-23T08:09:30.300Z,8.50
2018-03-23T08:11:02.115Z,11.30
2018-03-23T08:12:34.281Z,11.80
2018-03-23T08:14:05.744Z,11.30
2018-03-23T08:15:37.559Z,12.90
2018-03-23T08:17:09.377Z,11.00
2018-03-23T08:18:41.188Z,12.80
2018-03-23T08:20:13.003Z,11.00
2018-03-23T08:23:16.633Z,13.40
2018-03-23T08:24:48.549Z,14.20
2018-03-23T08:26:20.262Z,12.40
2018-03-23T08:27:52.078Z,10.30
2018-03-23T08:29:23.892Z,10.50
2018-03-23T08:30:55.808Z,12.30
2018-03-23T08:32:27.522Z,10.50
2018-03-23T08:33:59.337Z,11.70
2018-03-23T08:35:31.153Z,11.80
2018-03-23T08:37:02.967Z,12.80
2018-03-23T08:38:34.782Z,12.70
2018-03-23T08:40:06.597Z,13.90
2018-03-23T08:41:38.412Z,13.80
2018-03-23T08:43:10.477Z,12.80
2018-03-23T08:44:42.042Z,12.30
2018-03-23T08:46:13.857Z,13.50
2018-03-23T08:47:46.191Z,15.60
2018-03-23T08:49:17.588Z,15.70
2018-03-23T08:50:49.302Z,16.80
2018-03-23T08:52:21.117Z,16.90
2018-03-23T08:53:52.932Z,15.80
2018-03-23T08:55:24.848Z,18.60
2018-03-23T08:56:56.561Z,18.40
2018-03-23T08:58:28.377Z,17.10
2018-03-23T09:00:00.192Z,16.70
2018-03-23T09:01:32.007Z,17.20
2018-03-23T09:03:03.822Z,20.20
2018-03-23T09:04:35.637Z,18.90
2018-03-23T09:06:07.453Z,20.10
2018-03-23T09:07:39.366Z,20.60
2018-03-23T09:09:11.081Z,20.50
2018-03-23T09:10:42.896Z,19.50
2018-03-23T09:12:14.715Z,20.40
2018-03-23T09:13:46.630Z,19.20
2018-03-23T09:15:18.365Z,20.50
2018-03-23T09:16:50.155Z,18.40
2018-03-23T09:18:21.970Z,21.10
2018-03-23T09:19:53.785Z,20.50
2018-03-23T09:21:25.599Z,18.60
2018-03-23T09:22:57.415Z,16.20
2018-03-23T09:24:29.261Z,18.70
2018-03-23T09:26:01.148Z,16.40
2018-03-23T09:27:32.859Z,18.20
2018-03-23T09:29:04.673Z,18.50
2018-03-23T09:30:36.489Z,16.70
2018-03-23T09:32:08.303Z,21.40
2018-03-23T09:33:40.119Z,19.70
2018-03-23T09:35:11.933Z,20.80
2018-03-23T09:36:43.750Z,23.30
2018-03-23T09:38:15.569Z,23.90
2018-03-23T09:39:47.381Z,24.30
2018-03-23T09:41:19.195Z,22.70
2018-03-23T09:42:51.009Z,24.80
2018-03-23T09:44:23.024Z,22.70
2018-03-23T09:45:54.639Z,24.80
2018-03-23T09:47:26.454Z,24.90
2018-03-23T09:48:58.271Z,27.10
2018-03-23T09:50:30.085Z,24.10
2018-03-23T09:52:01.905Z,25.10
2018-03-23T09:53:33.716Z,21.60
2018-03-23T09:56:37.350Z,25.20
2018-03-23T09:58:09.163Z,21.00
2018-03-23T09:59:41.502Z,21.30
2018-03-23T10:01:13.317Z,22.10
2018-03-23T10:02:44.911Z,21.80
2018-03-23T10:04:16.426Z,21.90
2018-03-23T10:05:48.243Z,21.00
2018-03-23T10:07:20.074Z,18.90
2018-03-23T10:10:23.692Z,19.40
2018-03-23T10:13:27.326Z,19.10
2018-03-23T10:14:59.446Z,19.30
2018-03-23T10:16:30.960Z,18.00
2018-03-23T10:18:02.776Z,18.70
2018-03-23T10:19:34.594Z,18.80
2018-03-23T10:21:06.412Z,20.80
2018-03-23T10:22:38.330Z,18.50
2018-03-23T10:24:10.050Z,20.40
2018-03-23T10:25:41.865Z,18.80
2018-03-23T10:27:13.683Z,17.80
2018-03-23T10:34:52.777Z,15.70
2018-03-23T10:36:24.596Z,15.80
2018-03-23T10:37:56.444Z,16.10
2018-03-23T10:39:28.239Z,17.20
2018-03-23T10:41:00.152Z,16.20
2018-03-23T10:42:31.879Z,17.40
2018-03-23T10:44:03.692Z,15.40
2018-03-23T10:47:07.336Z,16.10
2018-03-23T10:48:39.454Z,18.50
2018-03-23T10:50:10.971Z,26.10
2018-03-23T10:51:42.810Z,25.50
2018-03-23T10:53:14.808Z,33.40
2018-03-23T10:54:46.428Z,28.20
2018-03-23T10:56:18.248Z,23.20
2018-03-23T10:59:22.142Z,23.10
2018-03-23T11:00:53.710Z,26.10
2018-03-23T11:03:57.351Z,17.90
2018-03-23T11:05:29.180Z,14.50
2018-03-23T11:07:01.011Z,15.20
2018-03-23T11:10:04.641Z,12.80
2018-03-23T11:11:36.456Z,12.40
2018-03-23T11:13:08.482Z,12.40
2018-03-23T11:14:40.621Z,13.40
2018-03-23T11:16:11.961Z,12.00
2018-03-23T11:17:43.843Z,13.70
2018-03-23T11:19:15.869Z,13.60
2018-03-23T11:20:47.387Z,12.20
2018-03-23T11:23:51.235Z,12.70
2018-03-23T11:25:22.855Z,11.50
2018-03-23T11:26:54.679Z,12.50
2018-03-23T11:33:02.524Z,11.00
2018-03-23T11:34:33.795Z,12.00
2018-03-23T11:36:05.618Z,11.20
2018-03-23T11:37:37.444Z,12.30
2018-03-23T11:39:09.366Z,14.00
2018-03-23T11:40:41.292Z,11.60
2018-03-23T11:42:12.912Z,13.00
2018-03-23T11:43:44.736Z,11.90
2018-03-23T11:45:16.559Z,12.20
2018-03-23T11:46:48.382Z,12.10
2018-03-23T11:48:20.205Z,13.30
2018-03-23T11:49:52.029Z,13.50
2018-03-23T11:51:23.953Z,13.20
2018-03-23T11:52:55.676Z,13.10
2018-03-23T11:55:59.323Z,12.30
2018-03-23T11:59:02.971Z,11.30
2018-03-23T12:00:35.315Z,12.60
2018-03-23T12:02:06.618Z,12.80
2018-03-23T12:03:38.447Z,12.20
2018-03-23T12:05:10.267Z,12.20
2018-03-23T12:06:42.091Z,11.30
2018-03-23T12:08:14.125Z,11.90
2018-03-23T12:11:17.967Z,12.00
2018-03-23T12:12:49.403Z,12.10
2018-03-23T12:14:21.315Z,12.60
2018-03-23T12:17:25.001Z,12.30
2018-03-23T12:18:56.686Z,13.30
2018-03-23T12:20:28.512Z,12.80
2018-03-23T12:22:04.825Z,13.40
2018-03-23T12:23:32.680Z,13.40
2018-03-23T12:25:14.816Z,13.20
2018-03-23T12:26:36.013Z,13.50
2018-03-23T12:28:08.741Z,12.70
2018-03-23T12:31:11.589Z,11.90
2018-03-23T12:32:44.594Z,12.80
2018-03-23T12:34:14.999Z,13.00
2018-03-23T12:35:47.167Z,11.40
2018-03-23T12:37:23.661Z,10.90
2018-03-23T12:38:54.679Z,11.90
2018-03-23T12:40:23.580Z,12.90
2018-03-23T12:41:55.451Z,12.60
2018-03-23T12:43:26.950Z,13.50
2018-03-23T12:44:57.725Z,11.70
2018-03-23T12:46:29.958Z,12.20
2018-03-23T12:48:01.374Z,12.00
2018-03-23T12:49:34.001Z,11.50
2018-03-23T12:51:05.717Z,12.20
2018-03-23T12:52:37.722Z,11.80
2018-03-23T12:55:40.735Z,13.20
2018-03-23T12:57:20.459Z,12.90
2018-03-23T12:58:48.141Z,12.10
2018-03-23T13:00:26.335Z,12.10
2018-03-23T13:01:48.397Z,11.10
2018-03-23T13:03:20.510Z,11.30
2018-03-23T13:04:52.672Z,11.00
2018-03-23T13:06:35.342Z,12.00
2018-03-23T13:07:56.648Z,13.10
2018-03-23T13:09:27.406Z,12.80
2018-03-23T13:11:00.924Z,12.80
2018-03-23T13:12:36.423Z,13.80
2018-03-23T13:14:07.970Z,12.10
2018-03-23T13:15:34.646Z,13.00
2018-03-23T13:17:06.912Z,11.80
2018-03-23T13:18:38.442Z,12.30
2018-03-23T13:20:10.461Z,12.00
2018-03-23T13:21:41.521Z,13.00
2018-03-23T13:23:13.549Z,13.80
2018-03-23T13:24:45.173Z,14.10
2018-03-23T13:26:17.099Z,14.40
2018-03-23T13:27:49.547Z,13.50
2018-03-23T13:29:20.856Z,14.80
2018-03-23T13:30:52.495Z,13.10
2018-03-23T13:32:24.354Z,14.10
2018-03-23T13:33:56.416Z,14.80
2018-03-23T13:35:27.956Z,12.70
2018-03-23T13:36:59.806Z,14.10
2018-03-23T13:38:32.418Z,14.30
2018-03-23T13:40:03.436Z,14.20
2018-03-23T13:41:35.374Z,13.00
2018-03-23T13:43:07.292Z,13.90
2018-03-23T13:44:39.107Z,12.70
2018-03-23T13:46:10.766Z,12.50
2018-03-23T13:47:42.774Z,12.90
2018-03-23T13:49:14.703Z,12.90
2018-03-23T13:50:46.229Z,12.80
2018-03-23T13:52:18.314Z,12.70
2018-03-23T13:53:49.883Z,13.30
2018-03-23T13:56:53.540Z,14.50
2018-03-23T13:58:25.572Z,14.00
2018-03-23T13:59:57.197Z,14.00
2018-03-23T14:01:29.026Z,12.60
2018-03-23T14:03:00.955Z,13.50
2018-03-23T14:04:32.683Z,13.20
2018-03-23T14:07:36.645Z,12.20
2018-03-23T14:09:08.171Z,13.30
2018-03-23T14:12:11.830Z,12.90
2018-03-23T14:13:43.864Z,12.20
2018-03-23T14:16:47.598Z,12.00
2018-03-23T14:18:19.356Z,12.20
2018-03-23T14:19:51.111Z,13.20
2018-03-23T14:22:54.891Z,12.40
2018-03-23T14:24:26.474Z,13.40
2018-03-23T14:25:58.301Z,12.00
2018-03-23T14:27:30.247Z,12.80
2018-03-23T14:30:33.791Z,12.90
2018-03-23T14:32:05.647Z,14.60
2018-03-23T14:33:37.971Z,14.60
2018-03-23T14:35:09.278Z,13.10
2018-03-23T14:36:41.112Z,14.80
2018-03-23T14:38:12.942Z,14.80
2018-03-23T14:39:44.771Z,14.60
2018-03-23T14:41:16.644Z,14.50
2018-03-23T14:42:48.531Z,13.10
2018-03-23T14:44:20.262Z,14.30
2018-03-23T14:45:52.146Z,13.60
2018-03-23T14:47:23.926Z,15.20
2018-03-23T14:50:27.994Z,12.40
2018-03-23T14:51:59.929Z,13.60
2018-03-23T14:53:31.246Z,14.70
2018-03-23T14:56:34.901Z,12.50
2018-03-23T14:58:06.732Z,12.30
2018-03-23T14:59:38.576Z,13.00
2018-03-23T15:01:10.398Z,11.00
2018-03-23T15:02:42.530Z,11.80
2018-03-23T15:04:14.059Z,13.30
2018-03-23T15:05:45.887Z,13.10
2018-03-23T15:07:18.253Z,12.90
2018-03-23T15:08:49.549Z,13.20
2018-03-23T15:10:21.379Z,13.70
2018-03-23T15:13:25.044Z,12.80
2018-03-23T15:14:56.876Z,13.90
2018-03-23T15:16:28.766Z,14.20
2018-03-23T15:18:00.744Z,13.20
2018-03-23T15:19:32.379Z,13.00
2018-03-23T15:22:36.398Z,13.10
2018-03-23T15:24:07.880Z,12.70
2018-03-23T15:27:11.752Z,12.90
2018-03-23T15:28:43.381Z,13.00
2018-03-23T15:30:15.213Z,11.80
2018-03-23T15:31:47.044Z,11.00
2018-03-23T15:33:18.876Z,12.10
2018-03-23T15:34:50.704Z,11.50
2018-03-23T15:36:22.536Z,12.10
2018-03-23T15:37:54.366Z,12.70
2018-03-23T15:39:26.419Z,13.60
2018-03-23T15:42:30.171Z,13.40
2018-03-23T15:44:01.892Z,13.00
2018-03-23T15:45:33.517Z,13.40
2018-03-23T15:47:05.347Z,14.60
2018-03-23T15:48:37.178Z,12.60
2018-03-23T15:50:09.007Z,11.30
2018-03-23T15:51:40.837Z,10.40
2018-03-23T15:53:13.800Z,9.80
2018-03-23T15:54:44.497Z,10.80
2018-03-23T15:56:16.332Z,11.30
2018-03-23T15:57:48.162Z,9.80
2018-03-23T15:59:20.248Z,10.00
2018-03-23T16:00:51.925Z,10.70
2018-03-23T16:02:23.789Z,11.40
2018-03-23T16:03:55.594Z,9.70
2018-03-23T16:05:27.836Z,12.10
2018-03-23T16:06:59.351Z,11.40
2018-03-23T16:08:31.336Z,11.00
2018-03-23T16:10:03.022Z,9.50
2018-03-23T16:11:34.985Z,9.50
2018-03-23T16:13:06.473Z,9.50
2018-03-23T16:14:38.668Z,11.30
2018-03-23T16:16:10.334Z,11.50
2018-03-23T16:17:42.165Z,10.30
2018-03-23T16:19:13.949Z,11.10
2018-03-23T16:20:45.622Z,12.70
2018-03-23T16:22:18.021Z,10.90
2018-03-23T16:23:49.734Z,11.10
2018-03-23T16:26:52.951Z,10.10
2018-03-23T16:28:24.830Z,13.00
2018-03-23T16:29:56.609Z,13.80
2018-03-23T16:31:28.438Z,14.10
2018-03-23T16:33:00.755Z,15.40
2018-03-23T16:34:32.099Z,15.90
2018-03-23T16:36:04.128Z,16.40
2018-03-23T16:37:35.784Z,17.10
2018-03-23T16:40:40.180Z,18.00
2018-03-23T16:42:11.234Z,16.90
2018-03-23T16:43:43.314Z,19.00
2018-03-23T16:45:15.194Z,17.50
2018-03-23T16:46:46.716Z,16.40
2018-03-23T16:48:18.748Z,19.10
2018-03-23T16:51:22.202Z,20.10
2018-03-23T16:52:54.367Z,19.40
2018-03-23T16:54:26.365Z,21.50
2018-03-23T16:55:57.688Z,21.20
2018-03-23T16:57:30.062Z,27.50
2018-03-23T16:59:01.445Z,27.80
2018-03-23T17:00:33.181Z,27.30
2018-03-23T17:02:04.999Z,29.60
2018-03-23T17:05:09.082Z,27.20
2018-03-23T17:06:40.785Z,27.70
2018-03-23T17:08:12.314Z,29.50
2018-03-23T17:09:44.339Z,28.80
2018-03-23T17:11:16.022Z,32.10
2018-03-23T17:12:48.169Z,30.40
2018-03-23T17:14:19.616Z,28.30
2018-03-23T17:15:51.971Z,28.60
2018-03-23T17:17:23.974Z,26.70
2018-03-23T17:18:55.373Z,25.80
2018-03-23T17:20:26.974Z,25.60
2018-03-23T17:21:59.078Z,24.30
2018-03-23T17:23:30.914Z,23.50
2018-03-23T17:25:02.413Z,23.50
2018-03-23T17:26:34.242Z,24.40
2018-03-23T17:28:06.589Z,22.20
2018-03-23T17:31:10.034Z,20.60
2018-03-23T17:32:42.282Z,20.20
2018-03-23T17:34:13.635Z,20.20
2018-03-23T17:35:45.217Z,20.30
2018-03-23T17:37:17.651Z,21.40
2018-03-23T17:38:48.873Z,20.70
2018-03-23T17:40:21.219Z,20.00
2018-03-23T17:41:52.532Z,19.20
2018-03-23T17:43:24.407Z,19.40
2018-03-23T17:44:56.268Z,20.80
2018-03-23T17:48:00.092Z,18.80
2018-03-23T17:51:03.498Z,18.70
2018-03-23T17:52:35.328Z,19.30
2018-03-23T17:54:07.155Z,19.60
2018-03-23T17:55:39.465Z,20.60
2018-03-23T17:58:42.737Z,20.80
2018-03-23T18:00:14.666Z,23.30
2018-03-23T18:01:47.416Z,22.60
2018-03-23T18:03:18.115Z,23.20
2018-03-23T18:04:49.948Z,23.20
2018-03-23T18:06:21.789Z,23.80
2018-03-23T18:09:25.438Z,24.50
2018-03-23T18:10:57.245Z,26.80
2018-03-23T18:12:29.066Z,27.00
2018-03-23T18:15:32.713Z,29.40
2018-03-23T18:20:08.370Z,26.20
2018-03-23T18:23:11.833Z,24.00
2018-03-23T18:24:43.803Z,22.90
2018-03-23T18:26:15.482Z,23.70
2018-03-23T18:27:47.537Z,22.90
2018-03-23T18:29:19.585Z,23.20
2018-03-23T18:30:50.989Z,22.80
2018-03-23T18:32:23.088Z,22.30
2018-03-23T18:33:55.136Z,23.00
2018-03-23T18:35:26.553Z,22.20
2018-03-23T18:36:58.255Z,22.70
2018-03-23T18:38:30.183Z,24.40
2018-03-23T18:40:02.220Z,24.60
2018-03-23T18:41:33.729Z,28.00
2018-03-23T18:43:05.565Z,25.80
2018-03-23T18:46:09.356Z,26.30
2018-03-23T18:47:41.028Z,26.60
2018-03-23T18:49:13.002Z,24.90
2018-03-23T18:52:16.500Z,25.40
2018-03-23T18:53:48.628Z,25.70
2018-03-23T18:58:24.102Z,26.90
2018-03-23T18:59:55.626Z,25.40
2018-03-23T19:01:27.470Z,25.40
2018-03-23T19:02:59.286Z,25.40
2018-03-23T19:04:31.098Z,25.50
2018-03-23T19:07:34.740Z,24.60
2018-03-23T19:09:06.564Z,24.10
2018-03-23T19:12:10.219Z,25.30
2018-03-23T19:13:42.237Z,23.70
2018-03-23T19:15:14.376Z,25.20
2018-03-23T19:16:46.390Z,25.50
2018-03-23T19:18:17.606Z,26.90
2018-03-23T19:22:52.972Z,26.50
2018-03-23T19:24:24.794Z,27.50
2018-03-23T19:25:56.820Z,27.70
2018-03-23T19:27:28.440Z,27.90
2018-03-23T19:29:00.823Z,29.60
2018-03-23T19:30:32.389Z,31.30
2018-03-23T19:32:03.925Z,30.50
2018-03-23T19:33:36.265Z,30.70
2018-03-23T19:35:07.551Z,29.40
2018-03-23T19:36:39.477Z,31.70
2018-03-23T19:38:11.198Z,31.40
2018-03-23T19:39:43.534Z,31.70
2018-03-23T19:41:14.839Z,32.50
2018-03-23T19:42:46.666Z,31.20
2018-03-23T19:45:50.661Z,32.90
2018-03-23T19:47:22.383Z,34.80
2018-03-23T19:48:53.948Z,36.10
2018-03-23T19:51:59.674Z,37.10
2018-03-23T19:53:30.128Z,35.00
2018-03-23T19:56:33.817Z,37.60
2018-03-23T19:58:04.870Z,36.20
2018-03-23T19:59:36.690Z,35.40
2018-03-23T20:01:08.850Z,35.60
2018-03-23T20:02:40.503Z,36.20
2018-03-23T20:05:44.175Z,35.50
2018-03-23T20:07:16.095Z,33.90
2018-03-23T20:08:47.622Z,36.00
2018-03-23T20:10:19.437Z,35.30
2018-03-23T20:11:51.454Z,34.30
2018-03-23T20:13:23.071Z,35.10
2018-03-23T20:14:55.005Z,34.70
2018-03-23T20:16:26.711Z,33.90
2018-03-23T20:17:58.530Z,34.20
2018-03-23T20:19:30.351Z,37.60
2018-03-23T20:22:34.194Z,31.60
2018-03-23T20:24:06.114Z,34.60
2018-03-23T20:27:09.640Z,36.80
2018-03-23T20:28:41.600Z,33.50
2018-03-23T20:30:13.089Z,33.60
2018-03-23T20:31:44.908Z,32.30
2018-03-23T20:33:16.727Z,33.40
2018-03-23T20:34:48.798Z,39.00
2018-03-23T20:36:20.565Z,29.20
2018-03-23T20:37:52.186Z,33.00
2018-03-23T20:40:55.824Z,33.20
2018-03-23T20:43:59.462Z,35.60
2018-03-23T20:45:31.287Z,34.20
2018-03-23T20:47:03.101Z,34.50
2018-03-23T20:48:34.920Z,32.20
2018-03-23T20:50:06.742Z,31.00
2018-03-23T20:51:38.556Z,32.90
2018-03-23T20:53:10.476Z,31.00
2018-03-23T20:54:42.195Z,30.80
2018-03-23T20:56:14.013Z,28.50
2018-03-23T20:57:45.833Z,30.00
2018-03-23T20:59:17.752Z,28.20
2018-03-23T21:02:21.291Z,24.30
2018-03-23T21:03:53.108Z,26.00
2018-03-23T21:05:24.927Z,24.40
2018-03-23T21:06:56.748Z,25.40
2018-03-23T21:08:28.565Z,23.70
2018-03-23T21:10:00.384Z,24.30
2018-03-23T21:11:32.304Z,23.80
2018-03-23T21:13:04.021Z,23.20
2018-03-23T21:14:35.842Z,21.80
2018-03-23T21:16:07.669Z,23.30
2018-03-23T21:17:39.477Z,21.90
2018-03-23T21:20:43.118Z,21.90
2018-03-23T21:23:46.752Z,21.10
2018-03-23T21:25:18.580Z,21.60
2018-03-23T21:26:50.394Z,22.80
2018-03-23T21:28:22.207Z,22.50
2018-03-23T21:29:54.179Z,23.80
2018-03-23T21:31:25.843Z,23.50
2018-03-23T21:34:29.488Z,23.60
2018-03-23T21:36:01.448Z,23.90
2018-03-23T21:37:33.116Z,21.20
2018-03-23T21:39:04.935Z,22.00
2018-03-23T21:40:36.755Z,22.40
2018-03-23T21:42:08.571Z,21.10
2018-03-23T21:43:40.389Z,20.70
2018-03-23T21:45:12.216Z,20.10